Notice: Undefined index: language in D:\xampp\htdocs\vam\index.php on line 25
Open Air Virtual

 METAR AND TAF INFORMATION
METAR FOR LXGB
ADDS - METARS form results

(1307 UTC 04 June 2020)
Data provider http://aviationweather.gov/metar/data/
 
METAR text: LXGB 041250Z 24015G26KT 9999 7000W FEW014 BKN016 22/18 Q1012 TEMPO 9999 NSW
Conditions at: LXGB (GIBRALTAR (CIV/M, GI) observed 1250 UTC 04 June 2020
Temperature: 22.0°C (72°F)
Dewpoint: 18.0°C (64°F) [RH = 78%]
Pressure (altimeter): 29.88 inches Hg (1012.0 mb)
Winds: from the WSW (240 degrees) at 17 MPH (15 knots; 7.7 m/s)
gusting to 30 MPH (26 knots; 13.4 m/s)
Visibility: 6 or more miles (10+ km)
Ceiling: 1600 feet AGL
Clouds: few clouds at 1400 feet AGL
broken clouds at 1600 feet AGL
Weather: no significant weather observed at this time

METAR text: LXGB 041220Z 24015G28KT 9999 7000W -SHRA BKN014 BKN070 22/17 Q1012 TEMPO FEW014 SCT020 9999 NSW
Conditions at: LXGB (GIBRALTAR (CIV/M, GI) observed 1220 UTC 04 June 2020
Temperature: 22.0°C (72°F)
Dewpoint: 17.0°C (63°F) [RH = 73%]
Pressure (altimeter): 29.88 inches Hg (1012.0 mb)
Winds: from the WSW (240 degrees) at 17 MPH (15 knots; 7.7 m/s)
gusting to 32 MPH (28 knots; 14.4 m/s)
Visibility: 6 or more miles (10+ km)
Ceiling: 1400 feet AGL
Clouds: broken clouds at 1400 feet AGL
broken clouds at 7000 feet AGL
Weather: -SHRA  (light rain showers)

Forecast for: LXGB (GIBRALTAR (CIV/M, GI)
Text: TAF LXGB 041037Z 0412/0421 25014KT 9999 BKN025
Forecast period: 1200 to 2100 UTC 04 June 2020
Forecast type: FROM: standard forecast or significant change
Winds: from the WSW (250 degrees) at 16 MPH (14 knots; 7.2 m/s)
Visibility: 6 or more miles 10+ km)
Ceiling: 2500 feet AGL
Clouds: broken clouds at 2500 feet AGL
Weather: no significant weather forecast for this period
Text: TEMPO 0412/0417 23018G28KT 7000 SHRA SCT012 BKN022 520002
Forecast period: 1200 to 1700 UTC 04 June 2020
Forecast type: TEMPORARY: The following changes expected for less than half the time period
Winds: from the SW (230 degrees) at 21 MPH (18 knots; 9.3 m/s)
gusting to 32 MPH (28 knots; 14.4 m/s)
Visibility: 4 miles (7 km)
Ceiling: 2200 feet AGL
Clouds: scattered clouds at 1200 feet AGL
broken clouds at 2200 feet AGL
Weather: SHRA  (rain showers)

 AIRPORT MAP

 RUNWAY INFORMATION
Runway 09 Runway length 6000 ft Runway width 150 ft
Runway elevation 10 ft Runway displaced threshold 302 ft Runway heading 88
Runway 27 Runway length 6000 ft Runway width 150 ft
Runway elevation 11 ft Runway displaced threshold 368 ft Runway heading 268

 AIRPORT FREQUENCIES
Type A/D Name APP Frequency 122.8 MHZ
Type OPS Name GIB TALKDO Frequency 130.4 MHZ
Type TWR Name TWR Frequency 131.2 MHZ

 AIRPORT NEAR NAVIGATION AIDS
Type TACAN Name Gibraltar Frequency 113600 KHZ



Powered by Virtual Airlines Manager [v2.6.2]